< Typhoon 200409 2004 Season Typhoon 200411 >
Typhoon 200410 (NAMTHEUN)
General InformationTrack Information on Google MapsDetailed Wind InformationAccess Analytics MapList of All Images || NewsDisaster Info.WeblogTrackbackTyphoon FrontResourceGoogle EarthGE AnimationAtom FeedGeoJSON
Detalied Best Track (Time Zone = UTC)
Year Month Day Hour Lat. Long. Pressure (hPa) Wind (kt) Class Image Chart
2004 7 24 12 20.7 151.0 1006 0 2 Image Chart
2004 7 24 18 21.5 150.5 1002 0 2 Image Chart
2004 7 25 00 22.4 150.0 996 35 3 Image Chart
2004 7 25 06 23.1 149.6 990 40 3 Image Chart
2004 7 25 12 23.6 149.3 985 50 4 Image Chart
2004 7 25 18 24.4 148.7 975 60 4 Image Chart
2004 7 26 00 24.8 148.4 965 70 5 Image Chart
2004 7 26 06 25.4 147.9 955 80 5 Image Chart
2004 7 26 12 26.0 147.2 945 85 5 Image Chart
2004 7 26 18 27.1 146.5 940 85 5 Image Chart
2004 7 27 00 27.7 146.0 935 85 5 Image Chart
2004 7 27 06 28.7 145.3 935 85 5 Image Chart
2004 7 27 12 29.6 144.6 940 85 5 Image Chart
2004 7 27 18 30.5 143.6 945 80 5 Image Chart
2004 7 28 00 30.8 142.7 950 80 5 Image Chart
2004 7 28 06 31.2 141.7 950 80 5 Image Chart
2004 7 28 09 31.3 141.2 950 80 5 Image Chart
2004 7 28 12 31.3 140.8 960 75 5 Image Chart
2004 7 28 15 31.3 140.6 960 75 5 Image Chart
2004 7 28 18 31.4 140.3 960 75 5 Image Chart
2004 7 28 21 31.5 140.0 960 75 5 Image Chart
2004 7 29 00 31.6 139.7 960 75 5 Image Chart
2004 7 29 03 31.6 139.5 960 75 5 Image Chart
2004 7 29 06 31.5 139.2 960 75 5 Image Chart
2004 7 29 09 31.4 139.0 960 75 5 Image Chart
2004 7 29 12 31.4 138.8 960 75 5 Image Chart
2004 7 29 15 31.4 138.7 960 75 5 Image Chart
2004 7 29 18 31.4 138.5 960 75 5 Image Chart
2004 7 29 21 31.4 138.3 960 75 5 Image Chart
2004 7 30 00 31.4 138.1 960 75 5 Image Chart
2004 7 30 03 31.6 137.7 960 75 5 Image Chart
2004 7 30 06 31.8 137.2 965 70 5 Image Chart
2004 7 30 09 32.0 136.5 965 70 5 Image Chart
2004 7 30 12 32.0 136.1 965 70 5 Image Chart
2004 7 30 15 32.0 135.7 965 70 5 Image Chart
2004 7 30 18 32.1 135.2 965 70 5 Image Chart
2004 7 30 21 32.3 134.6 970 65 5 Image Chart
2004 7 31 00 32.4 134.4 970 65 5 Image Chart
2004 7 31 03 32.6 134.1 970 65 5 Image Chart
2004 7 31 06 33.0 133.4 975 65 5 Image Chart
2004 7 31 07 33.1 133.2 980 65 5 Image Chart
2004 7 31 09 33.5 132.8 985 55 4 Image Chart
2004 7 31 12 34.0 132.3 992 45 3 Image Chart
2004 7 31 15 34.2 131.3 996 40 3 Image Chart
2004 7 31 18 34.4 131.0 996 35 3 Image Chart
2004 7 31 21 34.7 131.0 996 35 3 Image Chart
2004 8 1 00 34.8 131.0 996 35 3 Image Chart
2004 8 1 06 35.4 131.1 996 35 3 Image Chart
2004 8 1 12 36.7 131.4 998 35 3 Image Chart
2004 8 1 18 37.7 131.6 998 35 3 Image Chart
2004 8 2 00 38.6 132.2 1000 0 2 Image Chart
2004 8 2 06 39.6 132.9 1000 0 2 Image Chart
2004 8 2 12 40.6 134.0 1000 0 2 Image Chart
2004 8 2 18 41.3 135.0 1002 0 2 Image Chart
2004 8 3 00 42.2 136.2 1002 0 2 Image Chart
2004 8 3 06 43.4 138.0 1002 0 6 Image Chart
2004 8 3 12 44.4 140.2 1004 0 6 Image Chart
2004 8 3 18 45.6 140.9 1004 0 6 Image Chart
Japan Meteorological Agency Best Track Data | Correction Date : 2006-01-18
< Typhoon 200409 2004 Season Typhoon 200411 >

Help